sensor_id;sensor_type;location;lat;lon;timestamp;temperature;humidity
24814;DHT22;12904;50.088;11.414;2022-11-20T00:00:52;-3.20;99.90
24814;DHT22;12904;50.088;11.414;2022-11-20T00:03:18;-3.30;99.90
24814;DHT22;12904;50.088;11.414;2022-11-20T00:05:44;-3.30;99.90
24814;DHT22;12904;50.088;11.414;2022-11-20T00:08:10;-3.40;99.90
24814;DHT22;12904;50.088;11.414;2022-11-20T00:10:37;-3.40;99.90
24814;DHT22;12904;50.088;11.414;2022-11-20T00:13:03;-3.50;99.90
24814;DHT22;12904;50.088;11.414;2022-11-20T00:15:29;-3.50;99.90
24814;DHT22;12904;50.088;11.414;2022-11-20T00:17:55;-3.60;99.90
24814;DHT22;12904;50.088;11.414;2022-11-20T00:20:20;-3.50;99.90
24814;DHT22;12904;50.088;11.414;2022-11-20T00:22:47;-3.60;99.90
24814;DHT22;12904;50.088;11.414;2022-11-20T00:25:13;-3.60;99.90
24814;DHT22;12904;50.088;11.414;2022-11-20T00:27:39;-3.60;99.90
24814;DHT22;12904;50.088;11.414;2022-11-20T00:30:05;-3.70;99.90
24814;DHT22;12904;50.088;11.414;2022-11-20T00:32:31;-3.80;99.90
24814;DHT22;12904;50.088;11.414;2022-11-20T00:34:57;-3.80;99.90
24814;DHT22;12904;50.088;11.414;2022-11-20T00:37:22;-3.80;99.90
24814;DHT22;12904;50.088;11.414;2022-11-20T00:39:48;-3.90;99.90
24814;DHT22;12904;50.088;11.414;2022-11-20T00:42:14;-3.90;99.90
24814;DHT22;12904;50.088;11.414;2022-11-20T00:44:39;-3.90;99.90
24814;DHT22;12904;50.088;11.414;2022-11-20T00:47:05;-3.80;99.90
24814;DHT22;12904;50.088;11.414;2022-11-20T00:49:31;-3.70;99.90
24814;DHT22;12904;50.088;11.414;2022-11-20T00:51:56;-3.70;99.90
24814;DHT22;12904;50.088;11.414;2022-11-20T00:54:22;-3.70;99.90
24814;DHT22;12904;50.088;11.414;2022-11-20T00:56:48;-3.70;99.90
24814;DHT22;12904;50.088;11.414;2022-11-20T00:59:13;-3.80;99.90
24814;DHT22;12904;50.088;11.414;2022-11-20T01:01:39;-3.80;99.90
24814;DHT22;12904;50.088;11.414;2022-11-20T01:04:05;-3.80;99.90
24814;DHT22;12904;50.088;11.414;2022-11-20T01:06:33;-3.80;99.90
24814;DHT22;12904;50.088;11.414;2022-11-20T01:09:02;-3.90;99.90
24814;DHT22;12904;50.088;11.414;2022-11-20T01:11:31;-3.90;99.90
24814;DHT22;12904;50.088;11.414;2022-11-20T01:13:58;-4.00;99.90
24814;DHT22;12904;50.088;11.414;2022-11-20T01:16:33;-4.00;99.90
24814;DHT22;12904;50.088;11.414;2022-11-20T01:19:01;-4.00;99.90
24814;DHT22;12904;50.088;11.414;2022-11-20T01:21:36;-4.00;99.90
24814;DHT22;12904;50.088;11.414;2022-11-20T01:24:03;-3.90;99.90
24814;DHT22;12904;50.088;11.414;2022-11-20T01:26:34;-3.90;99.90
24814;DHT22;12904;50.088;11.414;2022-11-20T01:29:00;-3.80;99.90
24814;DHT22;12904;50.088;11.414;2022-11-20T01:31:34;-3.70;99.90
24814;DHT22;12904;50.088;11.414;2022-11-20T01:34:09;-3.70;99.90
24814;DHT22;12904;50.088;11.414;2022-11-20T01:36:36;-3.60;99.90
24814;DHT22;12904;50.088;11.414;2022-11-20T01:39:10;-3.60;99.90
24814;DHT22;12904;50.088;11.414;2022-11-20T01:41:35;-3.50;99.90
24814;DHT22;12904;50.088;11.414;2022-11-20T01:44:22;-3.50;99.90
24814;DHT22;12904;50.088;11.414;2022-11-20T01:47:08;-3.50;99.90
24814;DHT22;12904;50.088;11.414;2022-11-20T01:49:39;-3.60;99.90
24814;DHT22;12904;50.088;11.414;2022-11-20T01:54:44;-3.40;99.90
24814;DHT22;12904;50.088;11.414;2022-11-20T01:57:12;-3.40;99.90
24814;DHT22;12904;50.088;11.414;2022-11-20T01:59:43;-3.40;99.90
24814;DHT22;12904;50.088;11.414;2022-11-20T02:02:09;-3.30;99.90
24814;DHT22;12904;50.088;11.414;2022-11-20T02:04:35;-3.30;99.90
24814;DHT22;12904;50.088;11.414;2022-11-20T02:07:02;-3.30;99.90
24814;DHT22;12904;50.088;11.414;2022-11-20T02:09:30;-3.30;99.90
24814;DHT22;12904;50.088;11.414;2022-11-20T02:11:56;-3.20;99.90
24814;DHT22;12904;50.088;11.414;2022-11-20T02:14:23;-3.20;99.90
24814;DHT22;12904;50.088;11.414;2022-11-20T02:16:49;-3.20;99.90
24814;DHT22;12904;50.088;11.414;2022-11-20T02:19:28;-3.10;99.90
24814;DHT22;12904;50.088;11.414;2022-11-20T02:22:19;-3.10;99.90
24814;DHT22;12904;50.088;11.414;2022-11-20T02:24:47;-3.10;99.90
24814;DHT22;12904;50.088;11.414;2022-11-20T02:27:15;-3.10;99.90
24814;DHT22;12904;50.088;11.414;2022-11-20T02:29:53;-3.10;99.90
24814;DHT22;12904;50.088;11.414;2022-11-20T02:32:29;-3.10;99.90
24814;DHT22;12904;50.088;11.414;2022-11-20T02:34:55;-3.00;99.90
24814;DHT22;12904;50.088;11.414;2022-11-20T02:37:21;-3.00;99.90
24814;DHT22;12904;50.088;11.414;2022-11-20T02:39:49;-3.10;99.90
24814;DHT22;12904;50.088;11.414;2022-11-20T02:42:15;-3.10;99.90
24814;DHT22;12904;50.088;11.414;2022-11-20T02:44:41;-3.10;99.90
24814;DHT22;12904;50.088;11.414;2022-11-20T02:47:06;-3.10;99.90
24814;DHT22;12904;50.088;11.414;2022-11-20T02:49:32;-3.20;99.90
24814;DHT22;12904;50.088;11.414;2022-11-20T02:51:58;-3.20;99.90
24814;DHT22;12904;50.088;11.414;2022-11-20T02:54:24;-3.20;99.90
24814;DHT22;12904;50.088;11.414;2022-11-20T02:56:50;-3.10;99.90
24814;DHT22;12904;50.088;11.414;2022-11-20T02:59:15;-3.10;99.90
24814;DHT22;12904;50.088;11.414;2022-11-20T03:01:41;-3.10;99.90
24814;DHT22;12904;50.088;11.414;2022-11-20T03:04:07;-3.10;99.90
24814;DHT22;12904;50.088;11.414;2022-11-20T03:06:32;-3.00;99.90
24814;DHT22;12904;50.088;11.414;2022-11-20T03:08:58;-3.00;99.90
24814;DHT22;12904;50.088;11.414;2022-11-20T03:11:24;-3.00;99.90
24814;DHT22;12904;50.088;11.414;2022-11-20T03:13:50;-3.00;99.90
24814;DHT22;12904;50.088;11.414;2022-11-20T03:16:18;-3.00;99.90
24814;DHT22;12904;50.088;11.414;2022-11-20T03:18:44;-3.00;99.90
24814;DHT22;12904;50.088;11.414;2022-11-20T03:21:11;-3.00;99.90
24814;DHT22;12904;50.088;11.414;2022-11-20T03:23:38;-3.00;99.90
24814;DHT22;12904;50.088;11.414;2022-11-20T03:28:36;-2.90;99.90
24814;DHT22;12904;50.088;11.414;2022-11-20T03:31:10;-2.90;99.90
24814;DHT22;12904;50.088;11.414;2022-11-20T03:33:36;-2.90;99.90
24814;DHT22;12904;50.088;11.414;2022-11-20T03:36:04;-2.90;99.90
24814;DHT22;12904;50.088;11.414;2022-11-20T03:38:31;-2.90;99.90
24814;DHT22;12904;50.088;11.414;2022-11-20T03:41:05;-2.80;99.90
24814;DHT22;12904;50.088;11.414;2022-11-20T03:43:30;-2.70;99.90
24814;DHT22;12904;50.088;11.414;2022-11-20T03:45:56;-2.70;99.90
24814;DHT22;12904;50.088;11.414;2022-11-20T03:48:22;-2.60;99.90
24814;DHT22;12904;50.088;11.414;2022-11-20T03:50:47;-2.50;99.90
24814;DHT22;12904;50.088;11.414;2022-11-20T03:53:14;-2.50;99.90
24814;DHT22;12904;50.088;11.414;2022-11-20T03:55:40;-2.40;99.90
24814;DHT22;12904;50.088;11.414;2022-11-20T03:58:05;-2.40;99.90
24814;DHT22;12904;50.088;11.414;2022-11-20T04:00:31;-2.40;99.90
24814;DHT22;12904;50.088;11.414;2022-11-20T04:03:01;-2.40;99.90
24814;DHT22;12904;50.088;11.414;2022-11-20T04:05:27;-2.50;99.90
24814;DHT22;12904;50.088;11.414;2022-11-20T04:07:53;-2.50;99.90
24814;DHT22;12904;50.088;11.414;2022-11-20T04:10:19;-2.50;99.90
24814;DHT22;12904;50.088;11.414;2022-11-20T04:12:45;-2.50;99.90
24814;DHT22;12904;50.088;11.414;2022-11-20T04:15:11;-2.50;99.90
24814;DHT22;12904;50.088;11.414;2022-11-20T04:17:36;-2.50;99.90
24814;DHT22;12904;50.088;11.414;2022-11-20T04:20:03;-2.50;99.90
24814;DHT22;12904;50.088;11.414;2022-11-20T04:22:29;-2.50;99.90
24814;DHT22;12904;50.088;11.414;2022-11-20T04:24:54;-2.50;99.90
24814;DHT22;12904;50.088;11.414;2022-11-20T04:27:20;-2.40;99.90
24814;DHT22;12904;50.088;11.414;2022-11-20T04:29:46;-2.40;99.90
24814;DHT22;12904;50.088;11.414;2022-11-20T04:32:11;-2.40;99.90
24814;DHT22;12904;50.088;11.414;2022-11-20T04:34:37;-2.40;99.90
24814;DHT22;12904;50.088;11.414;2022-11-20T04:37:03;-2.30;99.90
24814;DHT22;12904;50.088;11.414;2022-11-20T04:39:28;-2.30;99.90
24814;DHT22;12904;50.088;11.414;2022-11-20T04:41:54;-2.20;99.90
24814;DHT22;12904;50.088;11.414;2022-11-20T04:44:38;-2.10;99.90
24814;DHT22;12904;50.088;11.414;2022-11-20T04:47:04;-2.10;99.90
24814;DHT22;12904;50.088;11.414;2022-11-20T04:49:30;-2.10;99.90
24814;DHT22;12904;50.088;11.414;2022-11-20T04:51:57;-2.00;99.90
24814;DHT22;12904;50.088;11.414;2022-11-20T04:54:22;-1.90;99.90
24814;DHT22;12904;50.088;11.414;2022-11-20T04:56:48;-1.90;99.90
24814;DHT22;12904;50.088;11.414;2022-11-20T04:59:14;-1.90;99.90
24814;DHT22;12904;50.088;11.414;2022-11-20T05:01:40;-1.90;99.90
24814;DHT22;12904;50.088;11.414;2022-11-20T05:04:06;-1.80;99.90
24814;DHT22;12904;50.088;11.414;2022-11-20T05:06:32;-1.80;99.90
24814;DHT22;12904;50.088;11.414;2022-11-20T05:08:58;-1.80;99.90
24814;DHT22;12904;50.088;11.414;2022-11-20T05:11:24;-1.90;99.90
24814;DHT22;12904;50.088;11.414;2022-11-20T05:13:51;-1.90;99.90
24814;DHT22;12904;50.088;11.414;2022-11-20T05:16:22;-1.90;99.90
24814;DHT22;12904;50.088;11.414;2022-11-20T05:18:48;-1.90;99.90
24814;DHT22;12904;50.088;11.414;2022-11-20T05:21:15;-1.90;99.90
24814;DHT22;12904;50.088;11.414;2022-11-20T05:23:41;-1.90;99.90
24814;DHT22;12904;50.088;11.414;2022-11-20T05:26:11;-1.80;99.90
24814;DHT22;12904;50.088;11.414;2022-11-20T05:28:37;-1.90;99.90
24814;DHT22;12904;50.088;11.414;2022-11-20T05:31:29;-1.90;99.90
24814;DHT22;12904;50.088;11.414;2022-11-20T05:33:56;-1.90;99.90
24814;DHT22;12904;50.088;11.414;2022-11-20T05:36:22;-1.90;99.90
24814;DHT22;12904;50.088;11.414;2022-11-20T05:38:47;-1.90;99.90
24814;DHT22;12904;50.088;11.414;2022-11-20T05:41:15;-1.90;99.90
24814;DHT22;12904;50.088;11.414;2022-11-20T05:43:43;-1.90;99.90
24814;DHT22;12904;50.088;11.414;2022-11-20T05:46:10;-1.80;99.90
24814;DHT22;12904;50.088;11.414;2022-11-20T05:48:37;-1.90;99.90
24814;DHT22;12904;50.088;11.414;2022-11-20T05:51:05;-1.90;99.90
24814;DHT22;12904;50.088;11.414;2022-11-20T05:53:33;-1.80;99.90
24814;DHT22;12904;50.088;11.414;2022-11-20T05:56:00;-1.80;99.90
24814;DHT22;12904;50.088;11.414;2022-11-20T05:58:26;-1.80;99.90
24814;DHT22;12904;50.088;11.414;2022-11-20T06:00:52;-1.80;99.90
24814;DHT22;12904;50.088;11.414;2022-11-20T06:03:17;-1.70;99.90
24814;DHT22;12904;50.088;11.414;2022-11-20T06:05:43;-1.70;99.90
24814;DHT22;12904;50.088;11.414;2022-11-20T06:08:09;-1.70;99.90
24814;DHT22;12904;50.088;11.414;2022-11-20T06:10:34;-1.70;99.90
24814;DHT22;12904;50.088;11.414;2022-11-20T06:13:00;-1.70;99.90
24814;DHT22;12904;50.088;11.414;2022-11-20T06:15:26;-1.70;99.90
24814;DHT22;12904;50.088;11.414;2022-11-20T06:17:55;-1.70;99.90
24814;DHT22;12904;50.088;11.414;2022-11-20T06:20:21;-1.70;99.90
24814;DHT22;12904;50.088;11.414;2022-11-20T06:22:47;-1.70;99.90
24814;DHT22;12904;50.088;11.414;2022-11-20T06:25:13;-1.60;99.90
24814;DHT22;12904;50.088;11.414;2022-11-20T06:27:39;-1.60;99.90
24814;DHT22;12904;50.088;11.414;2022-11-20T06:30:05;-1.50;99.90
24814;DHT22;12904;50.088;11.414;2022-11-20T06:32:30;-1.50;99.90
24814;DHT22;12904;50.088;11.414;2022-11-20T06:34:56;-1.50;99.90
24814;DHT22;12904;50.088;11.414;2022-11-20T06:37:22;-1.50;99.90
24814;DHT22;12904;50.088;11.414;2022-11-20T06:39:47;-1.50;99.90
24814;DHT22;12904;50.088;11.414;2022-11-20T06:42:13;-1.50;99.90
24814;DHT22;12904;50.088;11.414;2022-11-20T06:44:39;-1.50;99.90
24814;DHT22;12904;50.088;11.414;2022-11-20T06:47:04;-1.50;99.90
24814;DHT22;12904;50.088;11.414;2022-11-20T06:49:30;-1.50;99.90
24814;DHT22;12904;50.088;11.414;2022-11-20T06:51:55;-1.40;99.90
24814;DHT22;12904;50.088;11.414;2022-11-20T06:54:21;-1.40;99.90
24814;DHT22;12904;50.088;11.414;2022-11-20T06:56:47;-1.40;99.90
24814;DHT22;12904;50.088;11.414;2022-11-20T06:59:13;-1.40;99.90
24814;DHT22;12904;50.088;11.414;2022-11-20T07:01:39;-1.40;99.90
24814;DHT22;12904;50.088;11.414;2022-11-20T07:04:04;-1.30;99.90
24814;DHT22;12904;50.088;11.414;2022-11-20T07:06:30;-1.30;99.90
24814;DHT22;12904;50.088;11.414;2022-11-20T07:08:55;-1.20;99.90
24814;DHT22;12904;50.088;11.414;2022-11-20T07:11:21;-1.20;99.90
24814;DHT22;12904;50.088;11.414;2022-11-20T07:13:47;-1.10;99.90
24814;DHT22;12904;50.088;11.414;2022-11-20T07:16:13;-1.10;99.90
24814;DHT22;12904;50.088;11.414;2022-11-20T07:18:38;-1.00;99.90
24814;DHT22;12904;50.088;11.414;2022-11-20T07:21:06;-1.00;99.90
24814;DHT22;12904;50.088;11.414;2022-11-20T07:23:32;-1.00;99.90
24814;DHT22;12904;50.088;11.414;2022-11-20T07:25:58;-1.00;99.90
24814;DHT22;12904;50.088;11.414;2022-11-20T07:28:23;-0.90;99.90
24814;DHT22;12904;50.088;11.414;2022-11-20T07:30:53;-0.90;99.90
24814;DHT22;12904;50.088;11.414;2022-11-20T07:33:19;-0.80;99.90
24814;DHT22;12904;50.088;11.414;2022-11-20T07:35:45;-0.70;99.90
24814;DHT22;12904;50.088;11.414;2022-11-20T07:38:10;-0.70;99.90
24814;DHT22;12904;50.088;11.414;2022-11-20T07:40:36;-0.70;99.90
24814;DHT22;12904;50.088;11.414;2022-11-20T07:43:02;-0.60;99.90
24814;DHT22;12904;50.088;11.414;2022-11-20T07:45:27;-0.60;99.90
24814;DHT22;12904;50.088;11.414;2022-11-20T07:47:53;-0.60;99.90
24814;DHT22;12904;50.088;11.414;2022-11-20T07:50:19;-0.50;99.90
24814;DHT22;12904;50.088;11.414;2022-11-20T07:52:45;-0.50;99.90
24814;DHT22;12904;50.088;11.414;2022-11-20T07:55:11;-0.50;99.90
24814;DHT22;12904;50.088;11.414;2022-11-20T07:57:37;-0.40;99.90
24814;DHT22;12904;50.088;11.414;2022-11-20T08:00:04;-0.40;99.90
24814;DHT22;12904;50.088;11.414;2022-11-20T08:02:30;-0.40;99.90
24814;DHT22;12904;50.088;11.414;2022-11-20T08:04:56;-0.40;99.90
24814;DHT22;12904;50.088;11.414;2022-11-20T08:07:21;-0.40;99.90
24814;DHT22;12904;50.088;11.414;2022-11-20T08:09:47;-0.40;99.90
24814;DHT22;12904;50.088;11.414;2022-11-20T08:12:18;-0.30;99.90
24814;DHT22;12904;50.088;11.414;2022-11-20T08:15:04;-0.30;99.90
24814;DHT22;12904;50.088;11.414;2022-11-20T08:17:30;-0.30;99.90
24814;DHT22;12904;50.088;11.414;2022-11-20T08:19:55;-0.20;99.90
24814;DHT22;12904;50.088;11.414;2022-11-20T08:22:21;-0.20;99.90
24814;DHT22;12904;50.088;11.414;2022-11-20T08:24:47;-0.10;99.90
24814;DHT22;12904;50.088;11.414;2022-11-20T08:27:13;0.00;99.90
24814;DHT22;12904;50.088;11.414;2022-11-20T08:29:38;0.10;99.90
24814;DHT22;12904;50.088;11.414;2022-11-20T08:32:04;0.10;99.90
24814;DHT22;12904;50.088;11.414;2022-11-20T08:34:30;0.20;99.90
24814;DHT22;12904;50.088;11.414;2022-11-20T08:36:55;0.30;99.90
24814;DHT22;12904;50.088;11.414;2022-11-20T08:39:21;0.40;99.90
24814;DHT22;12904;50.088;11.414;2022-11-20T08:41:47;0.50;99.90
24814;DHT22;12904;50.088;11.414;2022-11-20T08:44:13;0.50;99.90
24814;DHT22;12904;50.088;11.414;2022-11-20T08:46:40;0.50;99.90
24814;DHT22;12904;50.088;11.414;2022-11-20T08:49:11;0.60;99.90
24814;DHT22;12904;50.088;11.414;2022-11-20T08:51:38;0.60;99.90
24814;DHT22;12904;50.088;11.414;2022-11-20T08:54:04;0.60;99.90
24814;DHT22;12904;50.088;11.414;2022-11-20T08:56:30;0.60;99.90
24814;DHT22;12904;50.088;11.414;2022-11-20T08:58:56;0.70;99.90
24814;DHT22;12904;50.088;11.414;2022-11-20T09:01:23;0.60;99.90
24814;DHT22;12904;50.088;11.414;2022-11-20T09:03:49;0.60;99.90
24814;DHT22;12904;50.088;11.414;2022-11-20T09:06:15;0.60;99.90
24814;DHT22;12904;50.088;11.414;2022-11-20T09:08:41;0.70;99.90
24814;DHT22;12904;50.088;11.414;2022-11-20T09:11:07;0.70;99.90
24814;DHT22;12904;50.088;11.414;2022-11-20T09:13:34;0.80;99.90
24814;DHT22;12904;50.088;11.414;2022-11-20T09:16:02;0.80;99.90
24814;DHT22;12904;50.088;11.414;2022-11-20T09:18:29;0.90;99.90
24814;DHT22;12904;50.088;11.414;2022-11-20T09:20:58;0.90;99.90
24814;DHT22;12904;50.088;11.414;2022-11-20T09:23:25;1.00;99.90
24814;DHT22;12904;50.088;11.414;2022-11-20T09:25:51;0.90;99.90
24814;DHT22;12904;50.088;11.414;2022-11-20T09:28:18;0.80;99.90
24814;DHT22;12904;50.088;11.414;2022-11-20T09:30:44;0.70;99.90
24814;DHT22;12904;50.088;11.414;2022-11-20T09:33:09;0.70;99.90
24814;DHT22;12904;50.088;11.414;2022-11-20T09:35:35;0.70;99.90
24814;DHT22;12904;50.088;11.414;2022-11-20T09:38:07;0.80;99.90
24814;DHT22;12904;50.088;11.414;2022-11-20T09:40:35;0.90;99.90
24814;DHT22;12904;50.088;11.414;2022-11-20T09:51:30;1.20;99.90
24814;DHT22;12904;50.088;11.414;2022-11-20T09:56:21;1.40;99.90
24814;DHT22;12904;50.088;11.414;2022-11-20T09:58:50;1.40;99.90
24814;DHT22;12904;50.088;11.414;2022-11-20T10:01:19;1.40;99.90
24814;DHT22;12904;50.088;11.414;2022-11-20T10:06:55;1.50;99.90
24814;DHT22;12904;50.088;11.414;2022-11-20T10:09:29;1.50;99.90
24814;DHT22;12904;50.088;11.414;2022-11-20T10:17:53;1.30;99.90
24814;DHT22;12904;50.088;11.414;2022-11-20T10:31:11;1.20;99.90
24814;DHT22;12904;50.088;11.414;2022-11-20T10:33:42;1.20;99.90
24814;DHT22;12904;50.088;11.414;2022-11-20T10:38:53;1.20;99.90
24814;DHT22;12904;50.088;11.414;2022-11-20T10:41:25;1.20;99.90
24814;DHT22;12904;50.088;11.414;2022-11-20T10:44:09;1.20;99.90
24814;DHT22;12904;50.088;11.414;2022-11-20T10:46:44;1.20;99.90
24814;DHT22;12904;50.088;11.414;2022-11-20T10:49:16;1.20;99.90
24814;DHT22;12904;50.088;11.414;2022-11-20T10:57:10;1.40;99.90
24814;DHT22;12904;50.088;11.414;2022-11-20T11:00:03;1.30;99.90
24814;DHT22;12904;50.088;11.414;2022-11-20T11:07:46;1.30;99.90
24814;DHT22;12904;50.088;11.414;2022-11-20T11:10:20;1.40;99.90
24814;DHT22;12904;50.088;11.414;2022-11-20T11:12:48;1.50;99.90
24814;DHT22;12904;50.088;11.414;2022-11-20T11:17:56;1.50;99.90
24814;DHT22;12904;50.088;11.414;2022-11-20T11:20:24;1.50;99.90
24814;DHT22;12904;50.088;11.414;2022-11-20T11:22:52;1.50;99.90
24814;DHT22;12904;50.088;11.414;2022-11-20T11:25:35;1.60;99.90
24814;DHT22;12904;50.088;11.414;2022-11-20T11:30:28;1.70;99.90
24814;DHT22;12904;50.088;11.414;2022-11-20T11:33:32;1.70;99.90
24814;DHT22;12904;50.088;11.414;2022-11-20T11:36:17;1.80;99.90
24814;DHT22;12904;50.088;11.414;2022-11-20T11:38:44;1.80;99.90
24814;DHT22;12904;50.088;11.414;2022-11-20T11:41:16;1.90;99.90
24814;DHT22;12904;50.088;11.414;2022-11-20T11:43:54;2.00;99.90
24814;DHT22;12904;50.088;11.414;2022-11-20T11:46:40;2.20;99.90
24814;DHT22;12904;50.088;11.414;2022-11-20T11:52:21;2.30;99.90
24814;DHT22;12904;50.088;11.414;2022-11-20T11:57:33;2.40;99.90
24814;DHT22;12904;50.088;11.414;2022-11-20T12:00:14;2.40;99.90
24814;DHT22;12904;50.088;11.414;2022-11-20T12:07:53;2.40;99.90
24814;DHT22;12904;50.088;11.414;2022-11-20T12:13:01;2.40;99.90
24814;DHT22;12904;50.088;11.414;2022-11-20T12:15:33;2.40;99.90
24814;DHT22;12904;50.088;11.414;2022-11-20T12:17:59;2.40;99.90
24814;DHT22;12904;50.088;11.414;2022-11-20T12:20:43;2.30;99.90
24814;DHT22;12904;50.088;11.414;2022-11-20T12:23:28;2.20;99.90
24814;DHT22;12904;50.088;11.414;2022-11-20T12:26:02;2.10;99.90
24814;DHT22;12904;50.088;11.414;2022-11-20T12:29:03;2.10;99.90
24814;DHT22;12904;50.088;11.414;2022-11-20T12:43:24;2.00;99.90
24814;DHT22;12904;50.088;11.414;2022-11-20T13:05:18;2.40;99.90
24814;DHT22;12904;50.088;11.414;2022-11-20T13:07:44;2.50;99.90
24814;DHT22;12904;50.088;11.414;2022-11-20T13:10:42;2.60;99.90
24814;DHT22;12904;50.088;11.414;2022-11-20T13:18:13;2.80;99.90
24814;DHT22;12904;50.088;11.414;2022-11-20T13:20:44;2.80;99.90
24814;DHT22;12904;50.088;11.414;2022-11-20T13:23:10;2.80;99.90
24814;DHT22;12904;50.088;11.414;2022-11-20T13:25:38;2.90;99.90
24814;DHT22;12904;50.088;11.414;2022-11-20T13:28:26;3.10;99.90
24814;DHT22;12904;50.088;11.414;2022-11-20T13:30:53;3.10;99.90
24814;DHT22;12904;50.088;11.414;2022-11-20T13:38:51;2.90;99.90
24814;DHT22;12904;50.088;11.414;2022-11-20T13:41:43;2.80;99.90
24814;DHT22;12904;50.088;11.414;2022-11-20T13:44:43;2.70;99.90
24814;DHT22;12904;50.088;11.414;2022-11-20T13:47:26;2.70;99.90
24814;DHT22;12904;50.088;11.414;2022-11-20T13:49:54;2.70;99.90
24814;DHT22;12904;50.088;11.414;2022-11-20T13:52:39;2.50;99.90
24814;DHT22;12904;50.088;11.414;2022-11-20T14:00:51;2.30;99.90
24814;DHT22;12904;50.088;11.414;2022-11-20T14:03:24;2.20;99.90
24814;DHT22;12904;50.088;11.414;2022-11-20T14:06:01;2.10;99.90
24814;DHT22;12904;50.088;11.414;2022-11-20T14:08:39;2.00;99.90
24814;DHT22;12904;50.088;11.414;2022-11-20T14:11:19;2.00;99.90
24814;DHT22;12904;50.088;11.414;2022-11-20T14:14:02;1.90;99.90
24814;DHT22;12904;50.088;11.414;2022-11-20T14:16:33;1.90;99.90
24814;DHT22;12904;50.088;11.414;2022-11-20T14:21:46;1.70;99.90
24814;DHT22;12904;50.088;11.414;2022-11-20T14:24:12;1.70;99.90
24814;DHT22;12904;50.088;11.414;2022-11-20T14:26:43;1.70;99.90
24814;DHT22;12904;50.088;11.414;2022-11-20T14:31:39;1.60;99.90
24814;DHT22;12904;50.088;11.414;2022-11-20T14:34:10;1.60;99.90
24814;DHT22;12904;50.088;11.414;2022-11-20T14:36:38;1.60;99.90
24814;DHT22;12904;50.088;11.414;2022-11-20T14:39:03;1.50;99.90
24814;DHT22;12904;50.088;11.414;2022-11-20T14:41:29;1.60;99.90
24814;DHT22;12904;50.088;11.414;2022-11-20T14:43:58;1.50;99.90
24814;DHT22;12904;50.088;11.414;2022-11-20T14:46:25;1.60;99.90
24814;DHT22;12904;50.088;11.414;2022-11-20T14:48:55;1.60;99.90
24814;DHT22;12904;50.088;11.414;2022-11-20T14:51:41;1.60;99.90
24814;DHT22;12904;50.088;11.414;2022-11-20T14:54:20;1.50;99.90
24814;DHT22;12904;50.088;11.414;2022-11-20T14:57:01;1.50;99.90
24814;DHT22;12904;50.088;11.414;2022-11-20T14:59:33;1.50;99.90
24814;DHT22;12904;50.088;11.414;2022-11-20T15:02:05;1.50;99.90
24814;DHT22;12904;50.088;11.414;2022-11-20T15:04:31;1.50;99.90
24814;DHT22;12904;50.088;11.414;2022-11-20T15:06:58;1.50;99.90
24814;DHT22;12904;50.088;11.414;2022-11-20T15:09:25;1.60;99.90
24814;DHT22;12904;50.088;11.414;2022-11-20T15:11:58;1.60;99.90
24814;DHT22;12904;50.088;11.414;2022-11-20T15:14:26;1.60;99.90
24814;DHT22;12904;50.088;11.414;2022-11-20T15:16:53;1.60;99.90
24814;DHT22;12904;50.088;11.414;2022-11-20T15:19:21;1.60;99.90
24814;DHT22;12904;50.088;11.414;2022-11-20T15:21:48;1.60;99.90
24814;DHT22;12904;50.088;11.414;2022-11-20T15:24:15;1.60;99.90
24814;DHT22;12904;50.088;11.414;2022-11-20T15:26:41;1.60;99.90
24814;DHT22;12904;50.088;11.414;2022-11-20T15:29:12;1.60;99.90
24814;DHT22;12904;50.088;11.414;2022-11-20T15:31:38;1.60;99.90
24814;DHT22;12904;50.088;11.414;2022-11-20T15:34:12;1.60;99.90
24814;DHT22;12904;50.088;11.414;2022-11-20T15:36:39;1.60;99.90
24814;DHT22;12904;50.088;11.414;2022-11-20T15:39:05;1.60;99.90
24814;DHT22;12904;50.088;11.414;2022-11-20T15:41:33;1.60;99.90
24814;DHT22;12904;50.088;11.414;2022-11-20T15:43:59;1.60;99.90
24814;DHT22;12904;50.088;11.414;2022-11-20T15:46:27;1.50;99.90
24814;DHT22;12904;50.088;11.414;2022-11-20T15:48:57;1.50;99.90
24814;DHT22;12904;50.088;11.414;2022-11-20T15:51:27;1.50;99.90
24814;DHT22;12904;50.088;11.414;2022-11-20T15:53:55;1.50;99.90
24814;DHT22;12904;50.088;11.414;2022-11-20T15:56:21;1.50;99.90
24814;DHT22;12904;50.088;11.414;2022-11-20T15:58:46;1.50;99.90
24814;DHT22;12904;50.088;11.414;2022-11-20T16:01:14;1.60;99.90
24814;DHT22;12904;50.088;11.414;2022-11-20T16:03:41;1.60;99.90
24814;DHT22;12904;50.088;11.414;2022-11-20T16:06:07;1.60;99.90
24814;DHT22;12904;50.088;11.414;2022-11-20T16:08:33;1.50;99.90
24814;DHT22;12904;50.088;11.414;2022-11-20T16:10:58;1.60;99.90
24814;DHT22;12904;50.088;11.414;2022-11-20T16:13:24;1.50;99.90
24814;DHT22;12904;50.088;11.414;2022-11-20T16:16:21;1.60;99.90
24814;DHT22;12904;50.088;11.414;2022-11-20T16:18:48;1.60;99.90
24814;DHT22;12904;50.088;11.414;2022-11-20T16:21:14;1.60;99.90
24814;DHT22;12904;50.088;11.414;2022-11-20T16:23:41;1.60;99.90
24814;DHT22;12904;50.088;11.414;2022-11-20T16:26:17;1.70;99.90
24814;DHT22;12904;50.088;11.414;2022-11-20T16:28:44;1.70;99.90
24814;DHT22;12904;50.088;11.414;2022-11-20T16:31:14;1.70;99.90
24814;DHT22;12904;50.088;11.414;2022-11-20T16:33:40;1.70;99.90
24814;DHT22;12904;50.088;11.414;2022-11-20T16:36:15;1.70;99.90
24814;DHT22;12904;50.088;11.414;2022-11-20T16:38:41;1.70;99.90
24814;DHT22;12904;50.088;11.414;2022-11-20T16:41:08;1.70;99.90
24814;DHT22;12904;50.088;11.414;2022-11-20T16:43:53;1.70;99.90
24814;DHT22;12904;50.088;11.414;2022-11-20T16:46:21;1.70;99.90
24814;DHT22;12904;50.088;11.414;2022-11-20T16:49:13;1.70;99.90
24814;DHT22;12904;50.088;11.414;2022-11-20T16:51:39;1.60;99.90
24814;DHT22;12904;50.088;11.414;2022-11-20T16:54:06;1.60;99.90
24814;DHT22;12904;50.088;11.414;2022-11-20T16:56:32;1.50;99.90
24814;DHT22;12904;50.088;11.414;2022-11-20T16:58:59;1.50;99.90
24814;DHT22;12904;50.088;11.414;2022-11-20T17:01:26;1.50;99.90
24814;DHT22;12904;50.088;11.414;2022-11-20T17:04:04;1.50;99.90
24814;DHT22;12904;50.088;11.414;2022-11-20T17:06:32;1.40;99.90
24814;DHT22;12904;50.088;11.414;2022-11-20T17:08:58;1.40;99.90
24814;DHT22;12904;50.088;11.414;2022-11-20T17:11:25;1.40;99.90
24814;DHT22;12904;50.088;11.414;2022-11-20T17:13:51;1.30;99.90
24814;DHT22;12904;50.088;11.414;2022-11-20T17:16:19;1.30;99.90
24814;DHT22;12904;50.088;11.414;2022-11-20T17:18:46;1.20;99.90
24814;DHT22;12904;50.088;11.414;2022-11-20T17:21:12;1.20;99.90
24814;DHT22;12904;50.088;11.414;2022-11-20T17:23:40;1.20;99.90
24814;DHT22;12904;50.088;11.414;2022-11-20T17:26:08;1.20;99.90
24814;DHT22;12904;50.088;11.414;2022-11-20T17:28:35;1.10;99.90
24814;DHT22;12904;50.088;11.414;2022-11-20T17:31:03;1.20;99.90
24814;DHT22;12904;50.088;11.414;2022-11-20T17:33:29;1.20;99.90